createdAt,value
2023-05-09T00:01:12.125Z,5.40
2023-05-09T00:03:39.380Z,5.30
2023-05-09T00:06:07.618Z,4.40
2023-05-09T00:08:35.109Z,4.70
2023-05-09T00:11:02.368Z,5.10
2023-05-09T00:13:29.381Z,5.80
2023-05-09T00:15:57.505Z,5.80
2023-05-09T00:18:24.317Z,6.30
2023-05-09T00:20:51.151Z,7.40
2023-05-09T00:23:18.220Z,6.80
2023-05-09T00:25:45.260Z,6.70
2023-05-09T00:28:12.311Z,6.70
2023-05-09T00:30:39.194Z,7.30
2023-05-09T00:33:06.658Z,7.70
2023-05-09T00:35:35.082Z,7.40
2023-05-09T00:38:01.924Z,6.50
2023-05-09T00:40:28.733Z,7.20
2023-05-09T00:42:58.508Z,7.20
2023-05-09T00:45:26.146Z,7.30
2023-05-09T00:47:53.036Z,7.50
2023-05-09T00:50:20.231Z,7.80
2023-05-09T00:52:47.290Z,6.80
2023-05-09T00:55:16.598Z,7.10
2023-05-09T00:57:43.837Z,8.10
2023-05-09T01:00:14.213Z,9.10
2023-05-09T01:02:45.736Z,8.50
2023-05-09T01:05:13.212Z,8.50
2023-05-09T01:07:49.844Z,8.40
2023-05-09T01:10:22.034Z,8.40
2023-05-09T01:12:51.925Z,8.80
2023-05-09T01:15:45.184Z,8.20
2023-05-09T01:18:14.896Z,8.40
2023-05-09T01:20:47.563Z,8.20
2023-05-09T01:23:16.160Z,8.80
2023-05-09T01:25:50.109Z,7.80
2023-05-09T01:28:36.261Z,8.90
2023-05-09T01:31:04.260Z,8.40
2023-05-09T01:33:33.226Z,8.50
2023-05-09T01:36:03.755Z,7.20
2023-05-09T01:38:32.443Z,5.10
2023-05-09T01:41:00.683Z,5.00
2023-05-09T01:43:29.003Z,4.60
2023-05-09T01:45:56.652Z,5.80
2023-05-09T01:48:26.779Z,4.60
2023-05-09T01:50:55.049Z,4.80
2023-05-09T01:53:22.943Z,4.70
2023-05-09T01:55:51.190Z,4.80
2023-05-09T01:58:18.677Z,4.80
2023-05-09T02:00:47.118Z,4.20
2023-05-09T02:03:14.352Z,4.90
2023-05-09T02:05:43.200Z,5.40
2023-05-09T02:08:10.212Z,4.80
2023-05-09T02:10:38.182Z,5.10
2023-05-09T02:13:05.098Z,6.70
2023-05-09T02:15:31.983Z,6.80
2023-05-09T02:17:58.941Z,6.40
2023-05-09T02:20:25.963Z,6.10
2023-05-09T02:22:53.576Z,6.70
2023-05-09T02:25:20.669Z,6.00
2023-05-09T02:27:47.727Z,6.10
2023-05-09T02:30:21.119Z,5.40
2023-05-09T02:32:49.403Z,5.20
2023-05-09T02:35:17.665Z,5.90
2023-05-09T02:37:46.350Z,6.40
2023-05-09T02:40:14.223Z,6.10
2023-05-09T02:42:41.470Z,5.50
2023-05-09T02:45:10.732Z,6.20
2023-05-09T02:47:40.593Z,5.50
2023-05-09T02:50:08.233Z,4.90
2023-05-09T02:52:35.604Z,5.20
2023-05-09T02:55:03.873Z,5.30
2023-05-09T02:57:31.743Z,4.60
2023-05-09T02:59:58.587Z,4.10
2023-05-09T03:02:26.562Z,5.00
2023-05-09T03:04:53.924Z,5.00
2023-05-09T03:07:21.158Z,4.30
2023-05-09T03:09:48.002Z,3.50
2023-05-09T03:12:15.045Z,4.00
2023-05-09T03:14:41.884Z,3.70
2023-05-09T03:17:08.740Z,3.70
2023-05-09T03:19:35.895Z,3.70
2023-05-09T03:22:02.834Z,3.10
2023-05-09T03:24:31.514Z,3.00
2023-05-09T03:26:58.355Z,3.10
2023-05-09T03:29:26.022Z,2.60
2023-05-09T03:31:54.514Z,2.40
2023-05-09T03:34:21.547Z,2.50
2023-05-09T03:36:51.460Z,2.00
2023-05-09T03:39:18.338Z,2.20
2023-05-09T03:41:46.781Z,1.70
2023-05-09T03:44:13.835Z,2.40
2023-05-09T03:46:40.919Z,2.30
2023-05-09T03:49:08.340Z,1.70
2023-05-09T03:51:35.393Z,1.50
2023-05-09T03:54:02.993Z,1.90
2023-05-09T03:56:29.775Z,1.60
2023-05-09T03:58:56.852Z,1.90
2023-05-09T04:01:24.128Z,2.00
2023-05-09T04:03:52.504Z,2.20
2023-05-09T04:06:20.335Z,1.30
2023-05-09T04:08:47.092Z,1.70
2023-05-09T04:11:13.874Z,1.40
2023-05-09T04:13:42.598Z,1.60
2023-05-09T04:16:20.623Z,1.50
2023-05-09T04:18:47.654Z,1.70
2023-05-09T04:21:15.517Z,1.50
2023-05-09T04:23:43.781Z,1.20
2023-05-09T04:26:12.488Z,1.50
2023-05-09T04:28:39.744Z,1.20
2023-05-09T04:31:07.451Z,1.40
2023-05-09T04:33:36.249Z,1.50
2023-05-09T04:36:04.560Z,1.10
2023-05-09T04:38:31.814Z,1.10
2023-05-09T04:40:59.473Z,1.60
2023-05-09T04:43:28.232Z,1.70
2023-05-09T04:45:56.829Z,1.20
2023-05-09T04:48:24.505Z,1.50
2023-05-09T04:50:51.554Z,1.60
2023-05-09T04:53:18.399Z,1.20
2023-05-09T04:55:47.089Z,1.30
2023-05-09T04:58:14.339Z,1.60
2023-05-09T05:00:41.971Z,1.30
2023-05-09T05:03:09.057Z,1.70
2023-05-09T05:05:37.416Z,1.50
2023-05-09T05:08:05.784Z,1.40
2023-05-09T05:10:34.829Z,1.40
2023-05-09T05:13:06.074Z,1.10
2023-05-09T05:15:34.312Z,1.30
2023-05-09T05:18:01.650Z,1.40
2023-05-09T05:20:32.111Z,1.80
2023-05-09T05:22:59.001Z,1.40
2023-05-09T05:25:26.417Z,1.70
2023-05-09T05:27:54.259Z,1.10
2023-05-09T05:30:21.307Z,1.40
2023-05-09T05:32:48.809Z,1.30
2023-05-09T05:35:18.086Z,1.80
2023-05-09T05:37:46.081Z,1.60
2023-05-09T05:40:14.409Z,1.50
2023-05-09T05:42:44.730Z,1.30
2023-05-09T05:45:12.652Z,1.40
2023-05-09T05:47:41.747Z,1.60
2023-05-09T05:50:12.149Z,1.60
2023-05-09T05:52:39.881Z,1.30
2023-05-09T05:55:08.005Z,1.80
2023-05-09T05:57:35.627Z,2.00
2023-05-09T06:00:05.897Z,1.20
2023-05-09T06:02:48.073Z,1.50
2023-05-09T06:05:22.153Z,1.30
2023-05-09T06:07:50.644Z,2.50
2023-05-09T06:10:17.694Z,1.20
2023-05-09T06:12:45.608Z,1.70
2023-05-09T06:15:12.847Z,1.60
2023-05-09T06:17:42.727Z,1.60
2023-05-09T06:20:09.965Z,1.90
2023-05-09T06:22:37.022Z,2.20
2023-05-09T06:25:04.158Z,1.80
2023-05-09T06:27:31.111Z,2.00
2023-05-09T06:29:58.153Z,1.90
2023-05-09T06:32:25.812Z,1.70
2023-05-09T06:34:53.485Z,2.20
2023-05-09T06:37:20.523Z,1.70
2023-05-09T06:39:47.425Z,1.70
2023-05-09T06:42:14.426Z,2.20
2023-05-09T06:44:44.352Z,2.00
2023-05-09T06:47:11.588Z,2.30
2023-05-09T06:49:38.630Z,2.50
2023-05-09T06:52:05.479Z,1.70
2023-05-09T06:54:32.363Z,1.60
2023-05-09T06:56:59.689Z,1.40
2023-05-09T06:59:27.038Z,1.60
2023-05-09T07:01:54.621Z,1.70
2023-05-09T07:04:21.743Z,1.70
2023-05-09T07:06:48.799Z,1.80
2023-05-09T07:09:17.879Z,1.50
2023-05-09T07:11:46.152Z,1.80
2023-05-09T07:14:13.110Z,1.70
2023-05-09T07:16:40.002Z,2.00
2023-05-09T07:19:06.871Z,1.80
2023-05-09T07:21:34.759Z,1.80
2023-05-09T07:24:01.601Z,1.80
2023-05-09T07:26:28.470Z,2.00
2023-05-09T07:28:55.396Z,2.00
2023-05-09T07:31:22.311Z,2.20
2023-05-09T07:33:49.378Z,1.70
2023-05-09T07:36:17.784Z,1.70
2023-05-09T07:38:46.554Z,2.50
2023-05-09T07:41:13.669Z,1.80
2023-05-09T07:43:40.579Z,1.90
2023-05-09T07:46:07.409Z,2.10
2023-05-09T07:48:34.240Z,1.80
2023-05-09T07:51:01.077Z,2.10
2023-05-09T07:53:28.100Z,1.80
2023-05-09T07:55:54.911Z,2.20
2023-05-09T07:58:22.229Z,2.40
2023-05-09T08:00:49.502Z,1.90
2023-05-09T08:03:16.565Z,1.80
2023-05-09T08:05:43.647Z,1.70
2023-05-09T08:08:10.711Z,2.40
2023-05-09T08:10:37.494Z,2.00
2023-05-09T08:13:04.322Z,2.90
2023-05-09T08:15:31.624Z,2.40
2023-05-09T08:17:58.549Z,2.10
2023-05-09T08:20:25.450Z,2.80
2023-05-09T08:22:52.398Z,3.20
2023-05-09T08:25:21.053Z,2.40
2023-05-09T08:27:48.105Z,3.30
2023-05-09T08:30:15.356Z,2.00
2023-05-09T08:32:42.187Z,2.50
2023-05-09T08:35:09.462Z,3.30
2023-05-09T08:37:36.920Z,2.50
2023-05-09T08:40:05.567Z,3.00
2023-05-09T08:42:33.227Z,3.40
2023-05-09T08:45:01.883Z,2.00
2023-05-09T08:47:29.794Z,2.50
2023-05-09T08:49:56.739Z,2.10
2023-05-09T08:52:23.507Z,2.00
2023-05-09T08:54:51.323Z,2.60
2023-05-09T08:57:18.194Z,2.20
2023-05-09T08:59:46.606Z,2.40
2023-05-09T09:02:14.726Z,2.10
2023-05-09T09:04:41.864Z,2.20
2023-05-09T09:07:09.994Z,2.30
2023-05-09T09:09:37.418Z,2.60
2023-05-09T09:12:08.482Z,2.70
2023-05-09T09:14:38.099Z,2.40
2023-05-09T09:17:05.441Z,2.30
2023-05-09T09:19:34.288Z,2.20
2023-05-09T09:22:03.083Z,2.00
2023-05-09T09:24:29.909Z,2.10
2023-05-09T09:26:56.770Z,2.10
2023-05-09T09:29:23.706Z,2.30
2023-05-09T09:31:55.357Z,2.00
2023-05-09T09:34:23.085Z,1.80
2023-05-09T09:36:49.995Z,1.80
2023-05-09T09:39:16.852Z,1.70
2023-05-09T09:41:45.348Z,1.80
2023-05-09T09:44:16.672Z,1.70
2023-05-09T09:46:50.985Z,2.40
2023-05-09T09:49:19.717Z,2.30
2023-05-09T09:51:50.729Z,2.10
2023-05-09T09:54:17.966Z,2.70
2023-05-09T09:56:46.161Z,1.90
2023-05-09T09:59:14.895Z,2.70
2023-05-09T10:01:53.946Z,2.20
2023-05-09T10:04:20.903Z,2.00
2023-05-09T10:06:54.655Z,2.60
2023-05-09T10:09:22.785Z,2.40
2023-05-09T10:11:51.687Z,3.00
2023-05-09T10:14:25.965Z,2.90
2023-05-09T10:16:56.056Z,2.20
2023-05-09T10:19:23.800Z,2.40
2023-05-09T10:21:50.909Z,3.50
2023-05-09T10:24:21.000Z,2.70
2023-05-09T10:26:50.038Z,2.70
2023-05-09T10:29:22.960Z,3.00
2023-05-09T10:31:51.745Z,2.70
2023-05-09T10:34:20.851Z,2.60
2023-05-09T10:36:48.282Z,2.90
2023-05-09T10:39:15.880Z,2.40
2023-05-09T10:41:43.174Z,3.10
2023-05-09T10:44:10.667Z,2.90
2023-05-09T10:46:37.749Z,2.30
2023-05-09T10:49:04.937Z,2.60
2023-05-09T10:51:32.869Z,2.20
2023-05-09T10:53:59.910Z,2.50
2023-05-09T10:56:32.075Z,2.50
2023-05-09T10:58:59.532Z,3.10
2023-05-09T11:01:37.933Z,2.90
2023-05-09T11:04:16.806Z,2.90
2023-05-09T11:06:47.939Z,2.40
2023-05-09T11:09:29.123Z,2.50
2023-05-09T11:11:57.598Z,2.70
2023-05-09T11:14:43.897Z,2.70
2023-05-09T11:17:23.203Z,3.80
2023-05-09T11:19:50.492Z,3.00
2023-05-09T11:22:20.205Z,3.00
2023-05-09T11:24:48.287Z,2.50
2023-05-09T11:27:23.109Z,3.00
2023-05-09T11:29:54.272Z,3.10
2023-05-09T11:32:22.166Z,3.10
2023-05-09T11:34:49.470Z,2.90
2023-05-09T11:37:18.006Z,2.60
2023-05-09T11:40:05.989Z,2.20
2023-05-09T11:42:49.606Z,2.40
2023-05-09T11:45:17.797Z,2.20
2023-05-09T11:47:46.255Z,3.00
2023-05-09T11:50:14.042Z,2.80
2023-05-09T11:52:41.706Z,3.00
2023-05-09T11:55:12.444Z,2.80
2023-05-09T11:57:44.398Z,2.10
2023-05-09T12:00:11.754Z,2.00
2023-05-09T12:02:39.085Z,2.40
2023-05-09T12:05:09.635Z,2.20
2023-05-09T12:07:37.860Z,2.20
2023-05-09T12:10:08.856Z,2.30
2023-05-09T12:12:43.618Z,2.50
2023-05-09T12:15:11.156Z,2.80
2023-05-09T12:17:37.958Z,2.70
2023-05-09T12:20:07.679Z,2.90
2023-05-09T12:22:35.023Z,2.50
2023-05-09T12:25:02.772Z,2.20
2023-05-09T12:27:29.947Z,2.50
2023-05-09T12:29:56.797Z,1.90
2023-05-09T12:32:23.862Z,2.50
2023-05-09T12:34:52.224Z,2.00
2023-05-09T12:37:19.260Z,1.90
2023-05-09T12:40:01.090Z,2.20
2023-05-09T12:42:29.541Z,1.20
2023-05-09T12:44:56.950Z,1.60
2023-05-09T12:47:27.149Z,1.70
2023-05-09T12:49:57.154Z,1.70
2023-05-09T12:52:24.073Z,1.90
2023-05-09T12:54:52.465Z,1.40
2023-05-09T12:57:23.235Z,2.00
2023-05-09T12:59:50.474Z,1.70
2023-05-09T13:02:18.077Z,1.80
2023-05-09T13:04:45.061Z,1.40
2023-05-09T13:07:11.892Z,2.10
2023-05-09T13:09:54.295Z,2.10
2023-05-09T13:12:21.126Z,1.50
2023-05-09T13:14:48.218Z,1.90
2023-05-09T13:17:15.236Z,1.40
2023-05-09T13:19:42.080Z,1.50
2023-05-09T13:22:11.040Z,1.60
2023-05-09T13:24:39.244Z,1.50
2023-05-09T13:27:06.108Z,1.80
2023-05-09T13:29:33.134Z,1.70
2023-05-09T13:32:00.416Z,1.90
2023-05-09T13:34:27.451Z,1.70
2023-05-09T13:36:54.223Z,2.00
2023-05-09T13:39:21.526Z,1.60
2023-05-09T13:41:48.989Z,1.70
2023-05-09T13:44:16.250Z,1.70
2023-05-09T13:46:43.374Z,1.80
2023-05-09T13:49:10.743Z,1.50
2023-05-09T13:51:37.551Z,1.40
2023-05-09T13:54:08.937Z,1.50
2023-05-09T13:56:35.774Z,1.90
2023-05-09T13:59:02.627Z,1.80
2023-05-09T14:01:29.512Z,1.20
2023-05-09T14:03:56.454Z,1.00
2023-05-09T14:06:23.574Z,1.20
2023-05-09T14:08:51.008Z,1.20
2023-05-09T14:11:17.853Z,1.40
2023-05-09T14:13:44.901Z,1.00
2023-05-09T14:16:11.764Z,1.10
2023-05-09T14:18:38.678Z,1.00
2023-05-09T14:21:06.865Z,1.10
2023-05-09T14:23:33.696Z,1.20
2023-05-09T14:26:00.904Z,1.40
2023-05-09T14:28:27.793Z,1.00
2023-05-09T14:30:54.555Z,1.20
2023-05-09T14:33:21.493Z,1.30
2023-05-09T14:35:48.306Z,1.10
2023-05-09T14:38:15.375Z,1.00
2023-05-09T14:40:42.174Z,1.40
2023-05-09T14:43:09.641Z,1.20
2023-05-09T14:45:36.518Z,1.30
2023-05-09T14:48:03.848Z,1.10
2023-05-09T14:50:30.947Z,1.10
2023-05-09T14:52:57.811Z,1.30
2023-05-09T14:55:24.702Z,1.60
2023-05-09T14:57:51.953Z,1.20
2023-05-09T15:00:21.785Z,0.90
2023-05-09T15:02:49.569Z,1.20
2023-05-09T15:05:17.001Z,1.20
2023-05-09T15:07:44.043Z,1.10
2023-05-09T15:10:11.121Z,1.00
2023-05-09T15:12:37.923Z,1.30
2023-05-09T15:15:14.244Z,1.40
2023-05-09T15:17:41.232Z,1.40
2023-05-09T15:20:08.390Z,1.00
2023-05-09T15:22:35.596Z,0.90
2023-05-09T15:25:05.403Z,1.00
2023-05-09T15:27:33.314Z,1.50
2023-05-09T15:30:00.797Z,1.20
2023-05-09T15:32:28.626Z,1.20
2023-05-09T15:34:55.384Z,1.00
2023-05-09T15:37:22.174Z,1.00
2023-05-09T15:39:49.162Z,1.10
2023-05-09T15:42:16.428Z,1.20
2023-05-09T15:44:43.461Z,1.40
2023-05-09T15:47:10.544Z,1.70
2023-05-09T15:49:37.372Z,1.10
2023-05-09T15:52:04.609Z,1.40
2023-05-09T15:54:32.189Z,1.10
2023-05-09T15:56:59.727Z,1.00
2023-05-09T15:59:27.582Z,1.00
2023-05-09T16:01:54.841Z,1.50
2023-05-09T16:04:22.180Z,1.10
2023-05-09T16:06:49.182Z,1.10
2023-05-09T16:09:16.134Z,1.20
2023-05-09T16:11:43.397Z,1.20
2023-05-09T16:14:11.823Z,1.20
2023-05-09T16:16:39.875Z,0.90
2023-05-09T16:19:07.246Z,1.00
2023-05-09T16:21:34.524Z,0.90
2023-05-09T16:24:03.278Z,1.10
2023-05-09T16:26:30.235Z,0.80
2023-05-09T16:28:57.284Z,1.00
2023-05-09T16:31:27.637Z,1.20
2023-05-09T16:33:54.658Z,1.00
2023-05-09T16:36:22.307Z,1.00
2023-05-09T16:38:49.154Z,1.20
2023-05-09T16:41:16.205Z,1.00
2023-05-09T16:43:43.267Z,0.90
2023-05-09T16:46:10.120Z,1.10
2023-05-09T16:48:37.136Z,0.90
2023-05-09T16:51:04.184Z,0.80
2023-05-09T16:53:31.026Z,0.90
2023-05-09T16:55:57.894Z,1.50
2023-05-09T16:58:25.337Z,1.10
2023-05-09T17:00:52.402Z,0.80
2023-05-09T17:03:19.206Z,1.20
2023-05-09T17:05:46.264Z,0.90
2023-05-09T17:08:13.109Z,0.90
2023-05-09T17:10:42.007Z,0.80
2023-05-09T17:13:09.255Z,0.80
2023-05-09T17:15:42.803Z,1.50
2023-05-09T17:18:17.029Z,1.10
2023-05-09T17:20:46.281Z,1.20
2023-05-09T17:23:13.059Z,0.80
2023-05-09T17:25:39.843Z,0.80
2023-05-09T17:28:07.916Z,0.80
2023-05-09T17:30:34.921Z,1.10
2023-05-09T17:33:03.084Z,1.00
2023-05-09T17:35:30.448Z,0.80
2023-05-09T17:37:57.251Z,1.40
2023-05-09T17:40:24.868Z,1.00
2023-05-09T17:42:53.058Z,1.20
2023-05-09T17:45:20.777Z,0.90
2023-05-09T17:47:47.845Z,1.20
2023-05-09T17:50:17.327Z,0.90
2023-05-09T17:52:44.726Z,1.10
2023-05-09T17:55:11.999Z,1.40
2023-05-09T17:57:38.945Z,1.40
2023-05-09T18:00:09.784Z,1.70
2023-05-09T18:02:42.739Z,0.90
2023-05-09T18:05:10.827Z,1.10
2023-05-09T18:07:39.002Z,0.80
2023-05-09T18:10:06.757Z,1.00
2023-05-09T18:12:36.885Z,1.20
2023-05-09T18:15:06.184Z,1.00
2023-05-09T18:17:33.005Z,1.20
2023-05-09T18:20:00.091Z,1.20
2023-05-09T18:22:27.554Z,1.30
2023-05-09T18:24:54.860Z,1.10
2023-05-09T18:27:22.030Z,0.90
2023-05-09T18:29:49.045Z,0.70
2023-05-09T18:32:16.895Z,1.50
2023-05-09T18:34:44.030Z,1.10
2023-05-09T18:37:11.009Z,1.10
2023-05-09T18:39:37.929Z,1.00
2023-05-09T18:42:06.981Z,1.20
2023-05-09T18:44:34.032Z,1.30
2023-05-09T18:47:01.849Z,1.80
2023-05-09T18:49:29.136Z,1.40
2023-05-09T18:51:56.762Z,1.50
2023-05-09T18:54:24.891Z,1.30
2023-05-09T18:56:51.934Z,1.40
2023-05-09T18:59:19.385Z,1.40
2023-05-09T19:01:46.416Z,1.30
2023-05-09T19:04:14.352Z,1.70
2023-05-09T19:06:43.137Z,1.40
2023-05-09T19:09:12.528Z,1.50
2023-05-09T19:11:39.911Z,1.40
2023-05-09T19:14:08.062Z,1.60
2023-05-09T19:16:35.701Z,1.40
2023-05-09T19:19:03.347Z,1.10
2023-05-09T19:24:14.548Z,1.10
2023-05-09T19:26:41.609Z,1.50
2023-05-09T19:29:09.006Z,1.20
2023-05-09T19:31:41.788Z,1.40
2023-05-09T19:34:12.328Z,1.40
2023-05-09T19:36:42.978Z,1.60
2023-05-09T19:39:12.616Z,1.80
2023-05-09T19:41:39.869Z,1.80
2023-05-09T19:44:10.896Z,8.90
2023-05-09T19:46:43.695Z,12.50
2023-05-09T19:49:12.055Z,9.10
2023-05-09T19:51:40.011Z,5.70
2023-05-09T19:54:09.929Z,14.90
2023-05-09T19:56:38.205Z,28.90
2023-05-09T19:59:05.519Z,23.10
2023-05-09T20:01:32.517Z,15.50
2023-05-09T20:03:59.842Z,14.20
2023-05-09T20:06:51.170Z,12.30
2023-05-09T20:09:22.631Z,9.90
2023-05-09T20:11:51.925Z,7.70
2023-05-09T20:14:20.203Z,4.20
2023-05-09T20:16:48.080Z,4.30
2023-05-09T20:19:17.774Z,3.10
2023-05-09T20:21:48.679Z,3.10
2023-05-09T20:24:17.092Z,2.90
2023-05-09T20:26:45.474Z,3.10
2023-05-09T20:29:14.216Z,3.30
2023-05-09T20:31:42.893Z,4.00
2023-05-09T20:34:17.213Z,3.50
2023-05-09T20:36:49.743Z,4.90
2023-05-09T20:39:19.242Z,4.30
2023-05-09T20:41:48.031Z,4.20
2023-05-09T20:44:19.625Z,3.70
2023-05-09T20:46:48.066Z,3.20
2023-05-09T20:49:16.443Z,3.70
2023-05-09T20:51:43.820Z,3.40
2023-05-09T20:54:10.949Z,3.40
2023-05-09T20:56:37.795Z,4.00
2023-05-09T20:59:05.868Z,3.50
2023-05-09T21:01:37.036Z,3.00
2023-05-09T21:04:08.576Z,3.30
2023-05-09T21:06:36.422Z,3.70
2023-05-09T21:09:04.086Z,3.70
2023-05-09T21:11:32.171Z,4.60
2023-05-09T21:13:58.902Z,4.10
2023-05-09T21:16:25.871Z,4.40
2023-05-09T21:18:52.682Z,3.80
2023-05-09T21:21:19.524Z,3.10
2023-05-09T21:23:46.583Z,3.30
2023-05-09T21:26:13.619Z,3.40
2023-05-09T21:28:40.463Z,3.30
2023-05-09T21:31:09.737Z,3.60
2023-05-09T21:33:38.453Z,3.50
2023-05-09T21:36:06.521Z,3.40
2023-05-09T21:38:33.360Z,4.00
2023-05-09T21:41:00.584Z,4.10
2023-05-09T21:43:29.294Z,4.00
2023-05-09T21:45:56.316Z,3.70
2023-05-09T21:48:23.237Z,4.50
2023-05-09T21:50:50.232Z,5.20
2023-05-09T21:53:16.992Z,5.90
2023-05-09T21:55:43.916Z,4.90
2023-05-09T21:58:10.781Z,4.60
2023-05-09T22:00:37.806Z,3.60
2023-05-09T22:03:04.916Z,3.40
2023-05-09T22:05:31.901Z,4.20
2023-05-09T22:07:58.861Z,3.70
2023-05-09T22:10:25.806Z,4.10
2023-05-09T22:12:53.530Z,3.50
2023-05-09T22:15:20.704Z,4.60
2023-05-09T22:17:47.611Z,4.00
2023-05-09T22:20:15.049Z,4.00
2023-05-09T22:22:42.461Z,3.10
2023-05-09T22:25:09.745Z,3.10
2023-05-09T22:27:36.445Z,3.10
2023-05-09T22:30:03.635Z,2.90
2023-05-09T22:32:30.427Z,3.40
2023-05-09T22:34:57.379Z,3.00
2023-05-09T22:37:24.335Z,3.20
2023-05-09T22:39:51.232Z,3.40
2023-05-09T22:42:18.019Z,4.00
2023-05-09T22:44:44.996Z,4.30
2023-05-09T22:47:12.118Z,4.00
2023-05-09T22:49:38.961Z,3.60
2023-05-09T22:52:06.008Z,3.90
2023-05-09T22:54:33.396Z,4.30
2023-05-09T22:57:00.466Z,4.40
2023-05-09T22:59:27.349Z,4.40
2023-05-09T23:01:54.602Z,5.30
2023-05-09T23:04:21.860Z,5.20
2023-05-09T23:06:48.688Z,5.00
2023-05-09T23:09:15.748Z,5.30
2023-05-09T23:11:42.572Z,4.90
2023-05-09T23:14:09.649Z,5.80
2023-05-09T23:16:36.924Z,5.30
2023-05-09T23:19:03.768Z,4.30
2023-05-09T23:21:30.781Z,5.00
2023-05-09T23:23:58.032Z,5.30
2023-05-09T23:26:25.080Z,5.30
2023-05-09T23:28:55.611Z,4.90
2023-05-09T23:31:22.482Z,4.50
2023-05-09T23:33:49.906Z,5.50
2023-05-09T23:36:16.764Z,4.50
2023-05-09T23:38:43.553Z,4.50
2023-05-09T23:41:10.655Z,5.30
2023-05-09T23:43:37.912Z,5.30
2023-05-09T23:46:04.979Z,5.00
2023-05-09T23:48:31.981Z,5.90
2023-05-09T23:50:59.027Z,6.50
2023-05-09T23:53:26.253Z,5.20
2023-05-09T23:55:53.045Z,5.20
2023-05-09T23:58:19.884Z,5.20
